SBCB

Details ICAO SBCB (CFB)
Name CABO FRIO
Region Brazil
Timezone America/Sao_Paulo (UTC-3.0)
Plans Departing 31
Arriving 45
Stats Elevation 14 ft / 4 m (AMSL)
Location -22.921681° -42.074268°
Runways 1
Magnetic Variation 23.175° W
Sunrise 2018-05-23 09:19:08 UTC / 2018-05-23 06:19:08 Local
Sunset 2018-05-23 20:13:50 UTC / 2018-05-23 17:13:50 Local
Advertisement - Login to hide

Runways

ID Width Length Bearing (true) Bearing (mag) Surface Threshold Offset Overrun Length
10 98 ft / 30 m 5,574 ft / 1,699 m 75.53° 98.71° Asphalt 0 ft / 0 m 200 ft / 61 m
28 98 ft / 30 m 5,574 ft / 1,699 m 255.53° 278.71° Asphalt 0 ft / 0 m 200 ft / 61 m

Map

Weather


0- 5 10 15 20 25 30 35+ Temperature / ° C

Clouds and Precipitation
Forecast for 2018-05-23 12:00 UTC. Updated 2 minutes ago

Ground ~20,000 ft ~40,000 ft Winds

METAR

SBCB 231100Z 00000KT CAVOK 20/16 Q1021

TAF

Not found

Frequencies

Tower 132.15 MHz RDO
Warning: Do not use this data for real-world aviation or navigation. No guarantee of current accuracy is given.